createdAt,value
2019-04-13T00:01:55.892Z,78.71
2019-04-13T00:04:34.422Z,78.83
2019-04-13T00:07:03.617Z,79.28
2019-04-13T00:09:32.813Z,79.72
2019-04-13T00:12:33.216Z,79.11
2019-04-13T00:15:02.571Z,80.12
2019-04-13T00:17:31.788Z,79.38
2019-04-13T00:20:00.940Z,79.18
2019-04-13T00:22:30.098Z,80.09
2019-04-13T00:24:59.248Z,80.24
2019-04-13T00:27:28.431Z,80.36
2019-04-13T00:29:57.604Z,79.52
2019-04-13T00:32:26.764Z,79.05
2019-04-13T00:34:55.945Z,79.28
2019-04-13T00:37:25.220Z,79.16
2019-04-13T00:39:54.421Z,79.22
2019-04-13T00:42:23.576Z,79.48
2019-04-13T00:44:52.780Z,79.87
2019-04-13T00:47:22.010Z,80.14
2019-04-13T00:49:51.324Z,80.26
2019-04-13T00:52:21.877Z,80.63
2019-04-13T00:54:51.292Z,80.70
2019-04-13T00:57:20.478Z,80.94
2019-04-13T00:59:49.691Z,81.23
2019-04-13T01:02:18.913Z,81.50
2019-04-13T01:04:53.604Z,81.96
2019-04-13T01:07:18.963Z,81.67
2019-04-13T01:09:48.123Z,81.98
2019-04-13T01:12:17.266Z,82.18
2019-04-13T01:14:46.454Z,82.32
2019-04-13T01:17:15.588Z,82.67
2019-04-13T01:19:44.786Z,83.00
2019-04-13T01:22:14.026Z,83.13
2019-04-13T01:24:43.266Z,83.55
2019-04-13T01:27:12.476Z,83.52
2019-04-13T01:29:41.675Z,83.55
2019-04-13T01:32:10.829Z,83.23
2019-04-13T01:34:40.032Z,83.47
2019-04-13T01:37:09.172Z,83.51
2019-04-13T01:39:38.432Z,83.83
2019-04-13T01:42:07.644Z,84.00
2019-04-13T01:44:36.900Z,84.23
2019-04-13T01:47:06.102Z,84.19
2019-04-13T01:49:35.326Z,84.49
2019-04-13T01:52:04.515Z,84.81
2019-04-13T01:54:33.768Z,84.80
2019-04-13T01:57:02.987Z,85.11
2019-04-13T01:59:32.136Z,84.76
2019-04-13T02:02:06.916Z,85.01
2019-04-13T02:04:45.703Z,84.92
2019-04-13T02:07:32.668Z,84.85
2019-04-13T02:10:09.090Z,84.69
2019-04-13T02:12:38.247Z,85.01
2019-04-13T02:15:08.043Z,84.33
2019-04-13T02:17:37.237Z,83.91
2019-04-13T02:20:07.655Z,84.40
2019-04-13T02:22:36.832Z,84.55
2019-04-13T02:25:06.499Z,84.50
2019-04-13T02:27:36.336Z,84.22
2019-04-13T02:30:06.243Z,83.92
2019-04-13T02:32:35.440Z,83.80
2019-04-13T02:35:04.864Z,83.31
2019-04-13T02:37:34.017Z,83.57
2019-04-13T02:40:03.309Z,83.64
2019-04-13T02:42:32.526Z,83.35
2019-04-13T02:45:01.768Z,83.94
2019-04-13T02:47:30.891Z,83.52
2019-04-13T02:50:00.101Z,83.60
2019-04-13T02:52:29.292Z,83.59
2019-04-13T02:54:58.479Z,83.60
2019-04-13T02:57:27.679Z,83.90
2019-04-13T02:59:56.878Z,83.90
2019-04-13T03:02:26.079Z,83.65
2019-04-13T03:04:55.231Z,83.97
2019-04-13T03:07:24.405Z,83.99
2019-04-13T03:09:53.551Z,84.15
2019-04-13T03:12:22.762Z,84.49
2019-04-13T03:14:51.915Z,84.99
2019-04-13T03:17:40.888Z,84.97
2019-04-13T03:20:17.911Z,84.80
2019-04-13T03:22:47.099Z,84.94
2019-04-13T03:25:16.279Z,85.10
2019-04-13T03:27:45.472Z,85.42
2019-04-13T03:30:17.176Z,85.76
2019-04-13T03:32:46.404Z,85.98
2019-04-13T03:35:15.601Z,86.54
2019-04-13T03:37:44.749Z,86.45
2019-04-13T03:40:14.278Z,86.36
2019-04-13T03:42:43.440Z,86.00
2019-04-13T03:45:12.574Z,86.27
2019-04-13T03:47:41.759Z,86.77
2019-04-13T03:50:11.027Z,87.16
2019-04-13T03:52:40.234Z,87.45
2019-04-13T03:55:09.428Z,87.48
2019-04-13T03:57:38.719Z,87.32
2019-04-13T04:00:08.020Z,87.61
2019-04-13T04:02:37.278Z,86.79
2019-04-13T04:05:07.076Z,86.95
2019-04-13T04:07:36.310Z,87.44
2019-04-13T04:10:06.206Z,87.00
2019-04-13T04:12:35.437Z,86.08
2019-04-13T04:15:05.221Z,86.37
2019-04-13T04:17:34.384Z,86.35
2019-04-13T04:20:03.753Z,86.20
2019-04-13T04:22:32.978Z,85.64
2019-04-13T04:25:02.170Z,85.21
2019-04-13T04:27:31.322Z,84.93
2019-04-13T04:30:00.539Z,84.99
2019-04-13T04:32:29.739Z,84.82
2019-04-13T04:34:58.986Z,84.64
2019-04-13T04:37:28.115Z,84.62
2019-04-13T04:39:57.272Z,84.43
2019-04-13T04:42:26.459Z,84.20
2019-04-13T04:44:55.691Z,83.94
2019-04-13T04:47:24.809Z,84.06
2019-04-13T04:49:53.992Z,84.17
2019-04-13T04:52:23.168Z,83.70
2019-04-13T04:54:52.329Z,83.86
2019-04-13T04:57:21.547Z,83.59
2019-04-13T04:59:50.815Z,83.04
2019-04-13T05:02:20.005Z,82.70
2019-04-13T05:04:49.238Z,82.26
2019-04-13T05:07:18.361Z,81.41
2019-04-13T05:09:47.517Z,80.97
2019-04-13T05:12:16.750Z,80.83
2019-04-13T05:14:45.945Z,80.95
2019-04-13T05:17:15.064Z,80.42
2019-04-13T05:19:44.258Z,80.46
2019-04-13T05:22:25.344Z,80.02
2019-04-13T05:24:44.340Z,80.29
2019-04-13T05:27:13.454Z,80.10
2019-04-13T05:29:42.716Z,79.41
2019-04-13T05:32:11.907Z,79.83
2019-04-13T05:34:41.053Z,79.68
2019-04-13T05:37:10.244Z,79.57
2019-04-13T05:39:39.433Z,79.04
2019-04-13T05:42:08.674Z,78.88
2019-04-13T05:44:37.879Z,78.17
2019-04-13T05:47:07.225Z,78.00
2019-04-13T05:49:36.458Z,77.64
2019-04-13T05:52:05.579Z,77.37
2019-04-13T05:54:34.765Z,76.50
2019-04-13T05:57:03.953Z,76.65
2019-04-13T05:59:33.112Z,77.15
2019-04-13T06:02:02.336Z,76.02
2019-04-13T06:04:31.523Z,76.41
2019-04-13T06:07:00.747Z,75.96
2019-04-13T06:09:29.909Z,75.05
2019-04-13T06:11:59.101Z,74.68
2019-04-13T06:14:30.639Z,74.39
2019-04-13T06:16:59.240Z,74.66
2019-04-13T06:19:28.417Z,73.97
2019-04-13T06:21:57.652Z,74.44
2019-04-13T06:24:26.864Z,74.39
2019-04-13T06:26:56.067Z,74.82
2019-04-13T06:29:25.214Z,75.73
2019-04-13T06:32:31.730Z,73.98
2019-04-13T06:35:23.577Z,74.70
2019-04-13T06:37:55.307Z,74.48
2019-04-13T06:40:23.907Z,73.87
2019-04-13T06:42:54.799Z,74.71
2019-04-13T06:45:24.195Z,75.55
2019-04-13T06:47:53.392Z,74.47
2019-04-13T06:50:22.547Z,73.68
2019-04-13T06:52:51.719Z,73.22
2019-04-13T06:55:20.894Z,72.32
2019-04-13T06:57:50.067Z,71.58
2019-04-13T07:00:19.373Z,72.64
2019-04-13T07:02:48.648Z,72.73
2019-04-13T07:05:17.839Z,71.27
2019-04-13T07:08:01.691Z,71.22
2019-04-13T07:10:53.618Z,70.89
2019-04-13T07:13:40.286Z,70.27
2019-04-13T07:16:15.233Z,70.26
2019-04-13T07:18:44.374Z,68.27
2019-04-13T07:21:13.536Z,68.21
2019-04-13T07:23:42.761Z,65.94
2019-04-13T07:26:12.090Z,65.14
2019-04-13T07:28:41.258Z,63.93
2019-04-13T07:31:10.391Z,64.09
2019-04-13T07:33:39.583Z,62.74
2019-04-13T07:36:10.963Z,63.40
2019-04-13T07:38:39.652Z,64.62
2019-04-13T07:41:08.839Z,61.04
2019-04-13T07:43:38.029Z,58.71
2019-04-13T07:46:24.947Z,61.26
2019-04-13T07:49:28.238Z,58.42
2019-04-13T07:52:15.132Z,55.48
2019-04-13T07:54:45.387Z,55.06
2019-04-13T07:57:15.283Z,56.05
2019-04-13T07:59:44.540Z,56.45
2019-04-13T08:02:15.360Z,56.51
2019-04-13T08:04:44.785Z,56.30
2019-04-13T08:07:14.014Z,51.45
2019-04-13T08:09:43.187Z,45.20
2019-04-13T08:12:12.520Z,40.05
2019-04-13T08:14:41.919Z,44.01
2019-04-13T08:17:18.501Z,47.95
2019-04-13T08:19:48.248Z,52.48
2019-04-13T08:22:17.488Z,50.27
2019-04-13T08:24:48.663Z,51.62
2019-04-13T08:27:17.631Z,50.69
2019-04-13T08:29:46.858Z,49.84
2019-04-13T08:32:16.062Z,46.29
2019-04-13T08:34:45.300Z,43.12
2019-04-13T08:37:14.435Z,42.56
2019-04-13T08:39:43.658Z,35.68
2019-04-13T08:42:19.281Z,39.15
2019-04-13T08:44:44.870Z,42.23
2019-04-13T08:47:14.120Z,43.92
2019-04-13T08:49:43.384Z,42.46
2019-04-13T08:52:12.552Z,42.54
2019-04-13T08:54:41.843Z,44.87
2019-04-13T08:57:11.183Z,44.54
2019-04-13T08:59:40.401Z,44.70
2019-04-13T09:02:09.634Z,44.18
2019-04-13T09:04:38.854Z,43.97
2019-04-13T09:07:08.134Z,40.06
2019-04-13T09:09:39.113Z,34.82
2019-04-13T09:12:11.031Z,27.49
2019-04-13T09:14:40.414Z,26.79
2019-04-13T09:17:14.432Z,33.70
2019-04-13T09:20:15.539Z,36.67
2019-04-13T09:23:02.369Z,39.25
2019-04-13T09:25:31.744Z,42.39
2019-04-13T09:28:01.618Z,42.97
2019-04-13T09:30:33.096Z,42.19
2019-04-13T09:33:04.100Z,37.75
2019-04-13T09:35:33.263Z,38.64
2019-04-13T09:38:03.667Z,38.60
2019-04-13T09:40:33.786Z,38.88
2019-04-13T09:43:04.646Z,36.81
2019-04-13T09:45:35.043Z,28.57
2019-04-13T09:48:04.356Z,23.11
2019-04-13T09:50:36.708Z,20.18
2019-04-13T09:53:04.599Z,20.64
2019-04-13T09:55:33.902Z,19.64
2019-04-13T09:58:03.123Z,20.53
2019-04-13T10:00:32.348Z,18.00
2019-04-13T10:03:01.559Z,18.02
2019-04-13T10:05:30.698Z,18.02
2019-04-13T10:07:59.935Z,16.24
2019-04-13T10:10:29.211Z,16.60
2019-04-13T10:13:07.702Z,16.47
2019-04-13T10:15:48.678Z,16.69
2019-04-13T10:18:25.912Z,17.70
2019-04-13T10:20:54.199Z,19.03
2019-04-13T10:23:23.392Z,21.18
2019-04-13T10:25:52.632Z,23.54
2019-04-13T10:28:21.903Z,25.75
2019-04-13T10:30:53.448Z,26.85
2019-04-13T10:33:22.082Z,30.39
2019-04-13T10:35:51.259Z,31.99
2019-04-13T10:38:20.545Z,35.32
2019-04-13T10:40:49.704Z,37.92
2019-04-13T10:43:18.980Z,40.19
2019-04-13T10:46:25.308Z,40.94
2019-04-13T10:49:00.254Z,42.40
2019-04-13T10:51:47.372Z,43.07
2019-04-13T10:54:16.742Z,43.77
2019-04-13T10:56:45.963Z,41.85
2019-04-13T10:59:15.147Z,42.10
2019-04-13T11:01:44.426Z,44.76
2019-04-13T11:04:13.695Z,46.14
2019-04-13T11:06:43.262Z,46.24
2019-04-13T11:09:21.278Z,46.41
2019-04-13T11:11:45.784Z,45.34
2019-04-13T11:14:15.179Z,45.57
2019-04-13T11:16:44.386Z,43.71
2019-04-13T11:19:13.580Z,38.24
2019-04-13T11:21:42.745Z,33.15
2019-04-13T11:24:11.936Z,30.71
2019-04-13T11:26:41.132Z,29.40
2019-04-13T11:29:11.215Z,32.19
2019-04-13T11:31:41.359Z,31.59
2019-04-13T11:34:10.593Z,24.92
2019-04-13T11:36:39.797Z,22.74
2019-04-13T11:39:09.096Z,22.96
2019-04-13T11:42:09.579Z,24.49
2019-04-13T11:44:55.801Z,25.18
2019-04-13T11:47:44.014Z,28.07
2019-04-13T11:50:20.903Z,25.11
2019-04-13T11:52:50.157Z,23.57
2019-04-13T11:55:19.323Z,24.18
2019-04-13T11:57:48.513Z,23.98
2019-04-13T12:00:35.486Z,23.36
2019-04-13T12:03:16.037Z,20.43
2019-04-13T12:08:01.427Z,21.17
2019-04-13T12:10:48.276Z,20.09
2019-04-13T12:13:35.198Z,22.55
2019-04-13T12:16:20.963Z,22.15
2019-04-13T12:19:12.094Z,23.74
2019-04-13T12:22:00.200Z,26.57
2019-04-13T12:24:33.412Z,25.04
2019-04-13T12:27:02.658Z,26.51
2019-04-13T12:29:31.886Z,27.48
2019-04-13T12:32:01.922Z,28.17
2019-04-13T12:34:31.167Z,30.41
2019-04-13T12:37:01.069Z,29.61
2019-04-13T12:39:31.313Z,23.47
2019-04-13T12:42:05.503Z,22.01
2019-04-13T12:44:37.687Z,21.57
2019-04-13T12:47:06.234Z,25.25
2019-04-13T12:49:35.411Z,29.75
2019-04-13T12:52:05.000Z,32.13
2019-04-13T12:54:36.919Z,37.21
2019-04-13T12:57:05.235Z,40.17
2019-04-13T12:59:36.489Z,38.58
2019-04-13T13:02:25.976Z,39.48
2019-04-13T13:05:14.234Z,41.69
2019-04-13T13:07:43.563Z,41.43
2019-04-13T13:10:15.474Z,41.05
2019-04-13T13:12:45.659Z,39.61
2019-04-13T13:15:15.594Z,37.32
2019-04-13T13:17:44.738Z,34.76
2019-04-13T13:20:16.523Z,35.06
2019-04-13T13:22:45.281Z,36.75
2019-04-13T13:25:14.745Z,33.94
2019-04-13T13:27:43.963Z,33.77
2019-04-13T13:30:13.515Z,35.83
2019-04-13T13:32:42.741Z,35.29
2019-04-13T13:35:12.476Z,36.20
2019-04-13T13:37:41.711Z,35.22
2019-04-13T13:40:13.371Z,38.89
2019-04-13T13:42:41.755Z,38.39
2019-04-13T13:45:11.188Z,36.35
2019-04-13T13:47:40.435Z,37.60
2019-04-13T13:50:10.523Z,36.62
2019-04-13T13:52:39.805Z,36.83
2019-04-13T13:55:11.591Z,35.51
2019-04-13T13:57:44.230Z,34.87
2019-04-13T14:00:16.398Z,34.46
2019-04-13T14:02:47.427Z,35.50
2019-04-13T14:05:16.468Z,35.39
2019-04-13T14:07:45.678Z,34.20
2019-04-13T14:10:17.594Z,35.03
2019-04-13T14:12:46.732Z,34.97
2019-04-13T14:15:16.096Z,32.48
2019-04-13T14:17:45.264Z,29.25
2019-04-13T14:20:15.064Z,32.96
2019-04-13T14:22:44.303Z,36.18
2019-04-13T14:25:13.863Z,36.07
2019-04-13T14:30:26.638Z,37.71
2019-04-13T14:32:55.853Z,39.28
2019-04-13T14:35:25.136Z,40.75
2019-04-13T14:37:54.464Z,41.77
2019-04-13T14:40:23.612Z,42.40
2019-04-13T14:42:52.811Z,46.01
2019-04-13T14:45:22.052Z,47.21
2019-04-13T14:47:51.395Z,49.11
2019-04-13T14:50:20.663Z,49.98
2019-04-13T14:52:49.897Z,49.99
2019-04-13T14:55:19.148Z,49.39
2019-04-13T14:57:48.342Z,47.16
2019-04-13T15:00:17.612Z,42.00
2019-04-13T15:02:46.842Z,37.05
2019-04-13T15:05:16.081Z,34.91
2019-04-13T15:07:45.376Z,33.33
2019-04-13T15:10:14.570Z,34.12
2019-04-13T15:12:43.790Z,33.29
2019-04-13T15:15:13.598Z,32.83
2019-04-13T15:17:53.737Z,35.18
2019-04-13T15:20:26.684Z,41.11
2019-04-13T15:22:57.420Z,46.47
2019-04-13T15:25:25.144Z,50.69
2019-04-13T15:27:58.215Z,54.26
2019-04-13T15:30:26.826Z,55.65
2019-04-13T15:32:56.410Z,55.18
2019-04-13T15:35:25.855Z,57.73
2019-04-13T15:37:56.047Z,57.22
2019-04-13T15:40:29.850Z,58.43
2019-04-13T15:43:02.839Z,58.51
2019-04-13T15:45:27.900Z,54.81
2019-04-13T15:47:58.099Z,51.53
2019-04-13T15:50:28.306Z,49.66
2019-04-13T15:52:57.695Z,47.93
2019-04-13T15:55:27.391Z,48.00
2019-04-13T15:57:57.757Z,47.95
2019-04-13T16:00:27.424Z,50.33
2019-04-13T16:02:56.857Z,50.68
2019-04-13T16:05:26.577Z,50.10
2019-04-13T16:07:55.887Z,51.95
2019-04-13T16:10:33.392Z,51.46
2019-04-13T16:13:04.750Z,50.76
2019-04-13T16:15:36.074Z,51.29
2019-04-13T16:18:06.653Z,51.18
2019-04-13T16:20:35.956Z,50.53
2019-04-13T16:23:05.142Z,50.47
2019-04-13T16:25:34.347Z,52.84
2019-04-13T16:28:26.517Z,55.59
2019-04-13T16:31:13.798Z,57.84
2019-04-13T16:33:54.208Z,57.88
2019-04-13T16:36:31.187Z,58.67
2019-04-13T16:39:09.731Z,59.16
2019-04-13T16:41:31.776Z,61.55
2019-04-13T16:44:06.781Z,60.74
2019-04-13T16:46:42.869Z,61.35
2019-04-13T16:49:26.403Z,61.66
2019-04-13T16:52:05.418Z,62.75
2019-04-13T16:55:03.497Z,62.10
2019-04-13T16:57:46.541Z,61.58
2019-04-13T17:00:44.116Z,64.08
2019-04-13T17:03:35.769Z,63.44
2019-04-13T17:06:06.966Z,64.87
2019-04-13T17:08:36.970Z,65.06
2019-04-13T17:11:07.021Z,65.77
2019-04-13T17:13:36.829Z,65.98
2019-04-13T17:16:07.168Z,65.87
2019-04-13T17:18:55.390Z,65.81
2019-04-13T17:21:52.366Z,65.23
2019-04-13T17:24:46.762Z,65.28
2019-04-13T17:27:35.771Z,65.73
2019-04-13T17:30:17.514Z,66.07
2019-04-13T17:32:56.282Z,65.62
2019-04-13T17:35:26.858Z,64.57
2019-04-13T17:37:56.953Z,64.92
2019-04-13T17:40:29.029Z,64.48
2019-04-13T17:43:04.151Z,63.85
2019-04-13T17:46:05.139Z,63.31
2019-04-13T17:48:58.821Z,62.21
2019-04-13T17:51:59.068Z,63.09
2019-04-13T17:54:47.206Z,62.99
2019-04-13T17:57:28.977Z,64.16
2019-04-13T18:00:26.602Z,65.37
2019-04-13T18:03:20.736Z,66.39
2019-04-13T18:06:15.108Z,67.60
2019-04-13T18:09:01.917Z,69.21
2019-04-13T18:11:56.220Z,70.87
2019-04-13T18:15:03.354Z,72.24
2019-04-13T18:17:49.481Z,72.90
2019-04-13T18:20:19.954Z,72.87
2019-04-13T18:22:50.390Z,73.71
2019-04-13T18:25:32.635Z,73.89
2019-04-13T18:27:51.238Z,74.27
2019-04-13T18:30:29.277Z,74.09
2019-04-13T18:32:53.078Z,74.11
2019-04-13T18:35:23.318Z,73.95
2019-04-13T18:37:53.718Z,74.58
2019-04-13T18:40:24.318Z,74.77
2019-04-13T18:43:04.968Z,77.04
2019-04-13T18:45:24.672Z,77.50
2019-04-13T18:47:53.901Z,78.02
2019-04-13T18:50:23.106Z,81.10
2019-04-13T18:52:53.116Z,82.60
2019-04-13T18:55:22.524Z,84.87
2019-04-13T18:57:52.641Z,86.03
2019-04-13T19:00:23.385Z,87.80
2019-04-13T19:02:52.843Z,90.81
2019-04-13T19:05:22.187Z,91.87
2019-04-13T19:07:51.446Z,92.78
2019-04-13T19:10:20.834Z,90.94
2019-04-13T19:12:50.128Z,89.86
2019-04-13T19:15:19.428Z,90.70
2019-04-13T19:17:48.714Z,89.06
2019-04-13T19:20:17.930Z,89.62
2019-04-13T19:22:47.095Z,88.73
2019-04-13T19:25:16.419Z,90.18
2019-04-13T19:27:45.706Z,91.06
2019-04-13T19:30:14.939Z,90.28
2019-04-13T19:32:44.229Z,90.72
2019-04-13T19:35:13.472Z,90.55
2019-04-13T19:37:42.726Z,92.05
2019-04-13T19:40:12.558Z,90.22
2019-04-13T19:42:41.801Z,90.97
2019-04-13T19:45:11.086Z,92.64
2019-04-13T19:47:40.361Z,92.70
2019-04-13T19:50:11.230Z,92.52
2019-04-13T19:52:45.693Z,92.97
2019-04-13T19:55:14.928Z,93.66
2019-04-13T19:57:44.117Z,93.38
2019-04-13T20:00:22.414Z,92.25
2019-04-13T20:02:51.846Z,92.53
2019-04-13T20:05:21.106Z,93.43
2019-04-13T20:07:50.306Z,94.51
2019-04-13T20:10:19.572Z,94.36
2019-04-13T20:12:49.077Z,94.32
2019-04-13T20:15:18.527Z,94.44
2019-04-13T20:17:47.819Z,94.89
2019-04-13T20:20:16.981Z,94.47
2019-04-13T20:22:46.220Z,95.48
2019-04-13T20:25:15.743Z,94.65
2019-04-13T20:27:45.635Z,94.74
2019-04-13T20:30:15.420Z,94.15
2019-04-13T20:32:44.904Z,94.03
2019-04-13T20:35:14.914Z,92.81
2019-04-13T20:37:44.775Z,92.83
2019-04-13T20:40:33.651Z,94.05
2019-04-13T20:43:03.397Z,93.50
2019-04-13T20:45:32.715Z,93.78
2019-04-13T20:48:03.683Z,93.67
2019-04-13T20:50:34.057Z,93.06
2019-04-13T20:53:03.395Z,92.48
2019-04-13T20:55:32.865Z,92.44
2019-04-13T20:58:03.087Z,92.62
2019-04-13T21:00:33.508Z,91.53
2019-04-13T21:05:46.986Z,90.06
2019-04-13T21:08:19.433Z,91.13
2019-04-13T21:10:50.254Z,92.01
2019-04-13T21:13:23.205Z,91.83
2019-04-13T21:15:53.153Z,91.68
2019-04-13T21:18:23.331Z,92.51
2019-04-13T21:20:53.202Z,92.10
2019-04-13T21:23:23.469Z,91.93
2019-04-13T21:25:53.356Z,92.86
2019-04-13T21:28:23.313Z,91.67
2019-04-13T21:30:55.560Z,90.88
2019-04-13T21:33:25.780Z,91.36
2019-04-13T21:35:55.752Z,91.43
2019-04-13T21:38:25.709Z,91.31
2019-04-13T21:40:55.864Z,90.66
2019-04-13T21:43:25.810Z,89.99
2019-04-13T21:45:55.719Z,89.64
2019-04-13T21:48:26.258Z,90.15
2019-04-13T21:51:14.095Z,90.75
2019-04-13T21:53:53.095Z,91.52
2019-04-13T21:56:23.279Z,92.21
2019-04-13T21:58:53.413Z,92.79
2019-04-13T22:03:47.297Z,92.20
2019-04-13T22:06:16.701Z,92.32
2019-04-13T22:08:46.964Z,92.40
2019-04-13T22:11:16.970Z,92.27
2019-04-13T22:13:46.818Z,91.91
2019-04-13T22:16:16.906Z,91.94
2019-04-13T22:18:47.472Z,91.32
2019-04-13T22:21:17.645Z,92.33
2019-04-13T22:23:47.458Z,91.72
2019-04-13T22:26:17.635Z,91.58
2019-04-13T22:28:54.496Z,91.54
2019-04-13T22:31:54.912Z,91.49
2019-04-13T22:34:42.611Z,91.25
2019-04-13T22:37:12.454Z,92.25
2019-04-13T22:39:42.149Z,90.33
2019-04-13T22:42:12.363Z,90.28
2019-04-13T22:44:49.544Z,91.39
2019-04-13T22:47:14.551Z,91.09
2019-04-13T22:49:54.096Z,90.43
2019-04-13T22:52:41.000Z,91.68
2019-04-13T22:55:33.149Z,91.15
2019-04-13T22:58:00.938Z,90.73
2019-04-13T23:00:34.658Z,89.99
2019-04-13T23:03:05.566Z,90.26
2019-04-13T23:05:35.044Z,90.33
2019-04-13T23:08:05.264Z,90.52
2019-04-13T23:10:35.406Z,90.67
2019-04-13T23:13:06.018Z,90.50
2019-04-13T23:15:37.846Z,90.38
2019-04-13T23:18:06.438Z,89.95
2019-04-13T23:20:36.438Z,89.51
2019-04-13T23:23:05.853Z,89.06
2019-04-13T23:25:35.438Z,89.28
2019-04-13T23:28:05.485Z,88.73
2019-04-13T23:30:35.593Z,88.69
2019-04-13T23:33:04.851Z,89.20
2019-04-13T23:35:34.505Z,89.77
2019-04-13T23:38:05.046Z,89.85
2019-04-13T23:40:35.295Z,91.77
2019-04-13T23:43:05.999Z,93.32
2019-04-13T23:45:38.592Z,92.85
2019-04-13T23:48:06.899Z,92.33
2019-04-13T23:50:37.134Z,93.13
2019-04-13T23:53:07.533Z,93.46
2019-04-13T23:55:55.413Z,93.51
2019-04-13T23:58:29.995Z,93.55
